Time;durP1;ratioP1;P1;durP2;ratioP2;P2;SDS_P1;SDS_P2;PMS_P1;PMS_P2;Temp;Humidity;BMP_temperature;BMP_pressure;BME280_temperature;BME280_humidity;BME280_pressure;Samples;Min_cycle;Max_cycle;Signal;HPM_P1;HPM_P2
2021/06/19 00:00:48;;;;;;;7.15;6.38;;;;;;;;;;4946407;28;20083;-72
2021/06/19 00:03:15;;;;;;;6.30;5.70;;;;;;;;;;4947363;28;20102;-72
2021/06/19 00:05:41;;;;;;;6.53;5.50;;;;;;;;;;4945006;28;20507;-73
2021/06/19 00:08:12;;;;;;;9.20;5.93;;;;;;;;;;4947588;28;20063;-73
2021/06/19 00:10:40;;;;;;;6.75;6.13;;;;;;;;;;4944721;28;20062;-73
2021/06/19 00:13:06;;;;;;;10.52;6.00;;;;;;;;;;4927829;28;20069;-72
2021/06/19 00:15:33;;;;;;;8.07;6.32;;;;;;;;;;4939234;28;20067;-73
2021/06/19 00:17:59;;;;;;;8.30;5.95;;;;;;;;;;4947925;28;20098;-73
2021/06/19 00:20:26;;;;;;;7.32;6.22;;;;;;;;;;4948248;28;20056;-73
2021/06/19 00:22:53;;;;;;;5.63;5.10;;;;;;;;;;4948002;28;20507;-72
2021/06/19 00:25:20;;;;;;;8.40;5.55;;;;;;;;;;4923450;29;20595;-72
2021/06/19 00:27:47;;;;;;;7.15;6.05;;;;;;;;;;4954024;28;20078;-72
2021/06/19 00:30:14;;;;;;;6.13;5.53;;;;;;;;;;4950985;28;20066;-72
2021/06/19 00:32:40;;;;;;;7.38;5.78;;;;;;;;;;4960057;28;20066;-72
2021/06/19 00:35:07;;;;;;;6.70;5.85;;;;;;;;;;4952740;28;20155;-72
2021/06/19 00:37:34;;;;;;;6.30;5.68;;;;;;;;;;4948088;28;20071;-72
2021/06/19 00:40:01;;;;;;;6.68;6.07;;;;;;;;;;4945225;28;20045;-72
2021/06/19 00:42:28;;;;;;;8.82;5.65;;;;;;;;;;4964857;28;20444;-73
2021/06/19 00:44:56;;;;;;;6.70;6.05;;;;;;;;;;4955782;28;20066;-72
2021/06/19 00:47:23;;;;;;;6.95;5.93;;;;;;;;;;4953133;28;20063;-72
2021/06/19 00:49:50;;;;;;;6.50;5.97;;;;;;;;;;4948952;28;20065;-72
2021/06/19 00:52:16;;;;;;;6.07;5.50;;;;;;;;;;4961247;28;20062;-73
2021/06/19 00:54:42;;;;;;;6.55;5.90;;;;;;;;;;4949571;28;20090;-72
2021/06/19 00:57:10;;;;;;;24.67;7.43;;;;;;;;;;4950232;28;20077;-73
2021/06/19 00:59:38;;;;;;;8.18;6.00;;;;;;;;;;4945544;28;20074;-72
2021/06/19 01:02:04;;;;;;;6.63;6.03;;;;;;;;;;4950671;28;20043;-73
2021/06/19 01:04:31;;;;;;;6.50;5.90;;;;;;;;;;4955910;28;20518;-73
2021/06/19 01:06:59;;;;;;;9.18;5.90;;;;;;;;;;4955832;28;20508;-71
2021/06/19 01:09:26;;;;;;;7.07;5.55;;;;;;;;;;4955340;28;20064;-72
2021/06/19 01:11:52;;;;;;;6.07;5.15;;;;;;;;;;4949233;28;20055;-73
2021/06/19 01:14:18;;;;;;;6.40;5.80;;;;;;;;;;4955316;28;20034;-72
2021/06/19 01:16:47;;;;;;;6.13;5.45;;;;;;;;;;4950285;28;20159;-71
2021/06/19 01:19:14;;;;;;;13.63;6.10;;;;;;;;;;4950825;28;20452;-72
2021/06/19 01:21:40;;;;;;;6.20;5.60;;;;;;;;;;4948494;28;20635;-72
2021/06/19 01:24:12;;;;;;;7.13;6.07;;;;;;;;;;4950096;28;20066;-72
2021/06/19 01:26:38;;;;;;;7.20;5.47;;;;;;;;;;4957807;28;20086;-72
2021/06/19 01:29:05;;;;;;;6.03;5.43;;;;;;;;;;4948054;28;20126;-73
2021/06/19 01:31:32;;;;;;;5.53;5.03;;;;;;;;;;4957073;28;20054;-72
2021/06/19 01:33:59;;;;;;;7.00;6.30;;;;;;;;;;4949290;28;20094;-72
2021/06/19 01:36:26;;;;;;;5.35;4.85;;;;;;;;;;4946781;28;20496;-72
2021/06/19 01:38:54;;;;;;;5.65;5.15;;;;;;;;;;4947696;28;20578;-72
2021/06/19 01:41:22;;;;;;;6.22;5.63;;;;;;;;;;4949652;28;20626;-72
2021/06/19 01:43:49;;;;;;;5.82;5.30;;;;;;;;;;4937539;28;20139;-72
2021/06/19 01:46:16;;;;;;;6.35;5.65;;;;;;;;;;4924838;29;20063;-72
2021/06/19 01:48:43;;;;;;;6.38;5.78;;;;;;;;;;4950526;28;20082;-72
2021/06/19 01:51:12;;;;;;;7.13;6.43;;;;;;;;;;4951261;28;20074;-72
2021/06/19 01:53:42;;;;;;;5.95;5.35;;;;;;;;;;4946269;28;20082;-72
2021/06/19 01:56:10;;;;;;;6.63;6.03;;;;;;;;;;4940214;28;20110;-72
2021/06/19 01:58:36;;;;;;;6.15;5.60;;;;;;;;;;4945703;28;20206;-72
2021/06/19 02:01:07;;;;;;;8.82;6.10;;;;;;;;;;4940947;28;20086;-72
2021/06/19 02:03:33;;;;;;;6.60;6.00;;;;;;;;;;4946723;28;20138;-72
2021/06/19 02:06:00;;;;;;;6.30;5.70;;;;;;;;;;4942933;28;20071;-72
2021/06/19 02:08:26;;;;;;;7.10;6.40;;;;;;;;;;4948907;28;20067;-72
2021/06/19 02:10:53;;;;;;;6.13;5.53;;;;;;;;;;4947915;28;20054;-72
2021/06/19 02:13:19;;;;;;;6.53;5.93;;;;;;;;;;4948685;28;20074;-72
2021/06/19 02:15:47;;;;;;;6.35;5.75;;;;;;;;;;4954966;28;20067;-72
2021/06/19 02:18:13;;;;;;;6.18;5.60;;;;;;;;;;4949851;28;20575;-72
2021/06/19 02:20:40;;;;;;;6.90;6.00;;;;;;;;;;4948475;28;20523;-72
2021/06/19 02:23:07;;;;;;;7.18;6.57;;;;;;;;;;4948858;28;20065;-72
2021/06/19 02:25:33;;;;;;;6.65;6.05;;;;;;;;;;4946836;28;20079;-73
2021/06/19 02:28:07;;;;;;;6.80;6.13;;;;;;;;;;4950954;28;20824;-72
2021/06/19 02:30:38;;;;;;;6.65;6.05;;;;;;;;;;4950067;28;20117;-72
2021/06/19 02:33:05;;;;;;;;;;;;;;;;;;4948223;28;20055;-71
2021/06/19 02:35:32;;;;;;;7.32;6.47;;;;;;;;;;4948796;28;19926;-71
2021/06/19 02:37:59;;;;;;;9.88;6.45;;;;;;;;;;4956097;28;20571;-71
2021/06/19 02:40:26;;;;;;;7.53;6.80;;;;;;;;;;4957545;28;20050;-72
2021/06/19 02:42:52;;;;;;;6.95;6.35;;;;;;;;;;4947588;28;20491;-71
2021/06/19 02:45:19;;;;;;;6.68;6.07;;;;;;;;;;4947211;28;20059;-73
2021/06/19 02:47:46;;;;;;;18.65;6.60;;;;;;;;;;4945927;28;20067;-72
2021/06/19 02:50:13;;;;;;;7.22;6.55;;;;;;;;;;4948042;28;20113;-72
2021/06/19 02:52:43;;;;;;;7.13;6.50;;;;;;;;;;4946112;28;20068;-72
2021/06/19 02:55:10;;;;;;;7.10;6.50;;;;;;;;;;4951117;28;20066;-72
2021/06/19 02:57:36;;;;;;;6.65;6.05;;;;;;;;;;4947653;28;20078;-72
2021/06/19 03:00:04;;;;;;;7.20;6.45;;;;;;;;;;4946673;28;20087;-72
2021/06/19 03:02:30;;;;;;;7.32;6.40;;;;;;;;;;4924719;28;20483;-72
2021/06/19 03:04:57;;;;;;;6.90;6.20;;;;;;;;;;4947970;28;20074;-72
2021/06/19 03:07:24;;;;;;;6.85;6.22;;;;;;;;;;4949862;28;20071;-72
2021/06/19 03:09:50;;;;;;;7.20;6.60;;;;;;;;;;4948340;28;20071;-72
2021/06/19 03:12:17;;;;;;;6.88;6.18;;;;;;;;;;4947363;28;20066;-72
2021/06/19 03:14:43;;;;;;;6.97;6.38;;;;;;;;;;4945810;28;20078;-72
2021/06/19 03:17:09;;;;;;;7.00;6.30;;;;;;;;;;4956798;28;20120;-72
2021/06/19 03:19:37;;;;;;;6.65;5.95;;;;;;;;;;4952224;28;20062;-72
2021/06/19 03:22:03;;;;;;;8.25;7.00;;;;;;;;;;4947943;28;20076;-72
2021/06/19 03:24:29;;;;;;;7.35;6.75;;;;;;;;;;4950758;28;20069;-72
2021/06/19 03:26:56;;;;;;;7.95;7.15;;;;;;;;;;4954933;28;20066;-72
2021/06/19 03:29:22;;;;;;;6.85;6.15;;;;;;;;;;4946852;28;20118;-72
2021/06/19 03:31:48;;;;;;;7.68;6.97;;;;;;;;;;4947088;28;20059;-72
2021/06/19 03:34:15;;;;;;;7.40;6.72;;;;;;;;;;4946929;28;20051;-71
2021/06/19 03:36:41;;;;;;;7.25;6.50;;;;;;;;;;4946635;28;20467;-72
2021/06/19 03:39:08;;;;;;;7.47;6.78;;;;;;;;;;4949893;28;20541;-71
2021/06/19 03:41:34;;;;;;;8.02;7.22;;;;;;;;;;4945785;28;20837;-73
2021/06/19 03:44:01;;;;;;;8.32;7.40;;;;;;;;;;4947443;28;20058;-73
2021/06/19 03:46:27;;;;;;;8.77;7.85;;;;;;;;;;4941705;28;20563;-72
2021/06/19 03:48:54;;;;;;;7.65;6.95;;;;;;;;;;4945934;28;20885;-72
2021/06/19 03:51:20;;;;;;;8.10;7.22;;;;;;;;;;4949875;28;20067;-72
2021/06/19 03:53:46;;;;;;;8.30;7.50;;;;;;;;;;4943305;28;20059;-73
2021/06/19 03:56:13;;;;;;;7.15;6.55;;;;;;;;;;4948255;28;20102;-72
2021/06/19 03:58:39;;;;;;;7.97;7.28;;;;;;;;;;4951397;28;20513;-72
2021/06/19 04:01:05;;;;;;;8.48;7.50;;;;;;;;;;4952139;28;20066;-72
2021/06/19 04:03:32;;;;;;;7.75;7.05;;;;;;;;;;4952250;28;20066;-72
2021/06/19 04:05:59;;;;;;;9.32;8.45;;;;;;;;;;4949803;28;20145;-72
2021/06/19 04:08:25;;;;;;;8.40;7.70;;;;;;;;;;4954805;28;20062;-73
2021/06/19 04:10:52;;;;;;;7.57;6.88;;;;;;;;;;4947773;28;20059;-72
2021/06/19 04:13:18;;;;;;;8.20;7.50;;;;;;;;;;4942483;28;20590;-72
2021/06/19 04:15:45;;;;;;;9.25;8.18;;;;;;;;;;4949616;28;20075;-73
2021/06/19 04:18:11;;;;;;;8.90;8.00;;;;;;;;;;4952925;28;20081;-73
2021/06/19 04:20:37;;;;;;;8.52;7.72;;;;;;;;;;4954218;28;20066;-72
2021/06/19 04:23:04;;;;;;;8.43;7.63;;;;;;;;;;4956669;28;20520;-73
2021/06/19 04:25:30;;;;;;;8.00;7.20;;;;;;;;;;4959454;28;20077;-73
2021/06/19 04:27:58;;;;;;;8.10;7.40;;;;;;;;;;4959987;28;20070;-73
2021/06/19 04:30:26;;;;;;;8.15;7.45;;;;;;;;;;4951541;28;20039;-73
2021/06/19 04:32:53;;;;;;;7.80;7.10;;;;;;;;;;4951842;28;20050;-73
2021/06/19 04:35:21;;;;;;;8.77;7.88;;;;;;;;;;4953486;28;20051;-73
2021/06/19 04:37:47;;;;;;;8.13;7.32;;;;;;;;;;4931290;28;20571;-73
2021/06/19 04:40:18;;;;;;;8.05;7.35;;;;;;;;;;4947828;28;20077;-73
2021/06/19 04:42:54;;;;;;;;;;;;;;;;;;4949987;28;20063;-72
2021/06/19 04:45:21;;;;;;;8.25;7.43;;;;;;;;;;4958533;28;19926;-72
2021/06/19 04:47:47;;;;;;;7.93;7.18;;;;;;;;;;4949490;28;20067;-72
2021/06/19 04:50:14;;;;;;;9.23;8.32;;;;;;;;;;4951095;28;20055;-73
2021/06/19 04:52:42;;;;;;;7.30;6.60;;;;;;;;;;4947883;28;20449;-73
2021/06/19 04:55:14;;;;;;;8.18;7.38;;;;;;;;;;4951298;28;20071;-72
2021/06/19 04:57:41;;;;;;;8.05;7.35;;;;;;;;;;4950056;28;20097;-72
2021/06/19 05:00:11;;;;;;;7.78;6.97;;;;;;;;;;4949737;28;20476;-71
2021/06/19 05:02:38;;;;;;;7.57;6.97;;;;;;;;;;4957416;28;20133;-72
2021/06/19 05:05:05;;;;;;;7.50;6.80;;;;;;;;;;4958271;28;20082;-73
2021/06/19 05:07:34;;;;;;;8.23;7.43;;;;;;;;;;4948863;28;20059;-73
2021/06/19 05:10:02;;;;;;;8.20;7.50;;;;;;;;;;4954455;28;20094;-72
2021/06/19 05:12:29;;;;;;;7.90;7.20;;;;;;;;;;4947555;28;20063;-72
2021/06/19 05:14:55;;;;;;;8.85;7.90;;;;;;;;;;4949704;28;21476;-72
2021/06/19 05:17:22;;;;;;;7.38;6.68;;;;;;;;;;4951664;28;20074;-72
2021/06/19 05:19:48;;;;;;;7.82;7.13;;;;;;;;;;4954207;28;20067;-72
2021/06/19 05:22:14;;;;;;;8.57;7.75;;;;;;;;;;4950039;28;20035;-72
2021/06/19 05:24:41;;;;;;;7.80;7.10;;;;;;;;;;4948465;28;20177;-73
2021/06/19 05:27:07;;;;;;;7.68;6.93;;;;;;;;;;4950755;28;20083;-72
2021/06/19 05:29:34;;;;;;;8.05;7.35;;;;;;;;;;4950006;28;20059;-72
2021/06/19 05:32:01;;;;;;;7.30;6.70;;;;;;;;;;4948736;28;20066;-73
2021/06/19 05:34:28;;;;;;;7.18;6.50;;;;;;;;;;4948586;28;20063;-72
2021/06/19 05:36:55;;;;;;;8.05;7.35;;;;;;;;;;4938181;28;20035;-73
2021/06/19 05:39:21;;;;;;;7.72;7.03;;;;;;;;;;4947020;28;20546;-72
2021/06/19 05:41:47;;;;;;;7.07;6.40;;;;;;;;;;4958487;28;20031;-73
2021/06/19 05:44:14;;;;;;;7.10;6.50;;;;;;;;;;4953079;28;20069;-73
2021/06/19 05:46:40;;;;;;;7.35;6.63;;;;;;;;;;4949278;28;20149;-73
2021/06/19 05:49:07;;;;;;;7.55;6.85;;;;;;;;;;4951195;28;20546;-72
2021/06/19 05:51:33;;;;;;;7.35;6.32;;;;;;;;;;4947909;28;20058;-73
2021/06/19 05:54:00;;;;;;;7.88;7.18;;;;;;;;;;4948178;28;20081;-72
2021/06/19 05:56:27;;;;;;;7.93;7.20;;;;;;;;;;4948023;28;20094;-72
2021/06/19 05:58:53;;;;;;;7.47;6.78;;;;;;;;;;4946347;28;20078;-73
2021/06/19 06:01:19;;;;;;;7.60;6.90;;;;;;;;;;4952358;28;20051;-72
2021/06/19 06:03:48;;;;;;;7.20;6.50;;;;;;;;;;4948946;28;20071;-72
2021/06/19 06:06:15;;;;;;;7.93;7.22;;;;;;;;;;4948571;28;20150;-72
2021/06/19 06:08:41;;;;;;;8.88;7.97;;;;;;;;;;4949954;28;20064;-73
2021/06/19 06:11:08;;;;;;;8.32;7.05;;;;;;;;;;4948701;28;20059;-72
2021/06/19 06:13:35;;;;;;;9.00;8.18;;;;;;;;;;4959518;28;20063;-72
2021/06/19 06:16:01;;;;;;;8.77;8.00;;;;;;;;;;4948939;28;20069;-72
2021/06/19 06:18:27;;;;;;;7.68;6.88;;;;;;;;;;4949457;28;20071;-73
2021/06/19 06:20:55;;;;;;;8.32;7.53;;;;;;;;;;4944768;28;20062;-73
2021/06/19 06:23:23;;;;;;;7.65;6.95;;;;;;;;;;4947929;28;20055;-73
2021/06/19 06:25:50;;;;;;;7.88;7.18;;;;;;;;;;4949503;28;20102;-73
2021/06/19 06:28:16;;;;;;;8.88;8.07;;;;;;;;;;4957915;28;20516;-72
2021/06/19 06:30:43;;;;;;;8.18;7.38;;;;;;;;;;4956735;28;20074;-72
2021/06/19 06:33:10;;;;;;;7.85;7.15;;;;;;;;;;4950211;28;20058;-72
2021/06/19 06:35:36;;;;;;;10.68;9.68;;;;;;;;;;4947514;28;20070;-72
2021/06/19 06:38:03;;;;;;;9.25;8.35;;;;;;;;;;4956141;28;20098;-72
2021/06/19 06:40:29;;;;;;;9.10;8.20;;;;;;;;;;4954436;28;20117;-72
2021/06/19 06:42:56;;;;;;;8.68;7.85;;;;;;;;;;4945195;28;20063;-72
2021/06/19 06:45:23;;;;;;;8.00;7.13;;;;;;;;;;4948676;28;20526;-72
2021/06/19 06:47:50;;;;;;;7.85;7.15;;;;;;;;;;4947306;28;20070;-72
2021/06/19 06:50:17;;;;;;;7.65;6.95;;;;;;;;;;4944517;28;20401;-72
2021/06/19 06:52:43;;;;;;;8.73;7.82;;;;;;;;;;4938038;28;20063;-72
2021/06/19 06:55:11;;;;;;;8.75;7.85;;;;;;;;;;4942440;28;20067;-72
2021/06/19 06:57:37;;;;;;;9.25;8.40;;;;;;;;;;4947313;28;20090;-71
2021/06/19 07:00:05;;;;;;;8.48;7.78;;;;;;;;;;4951564;28;20134;-71
2021/06/19 07:02:31;;;;;;;7.25;6.55;;;;;;;;;;4946091;28;20063;-71
2021/06/19 07:04:58;;;;;;;9.23;8.32;;;;;;;;;;4951397;28;20449;-73
2021/06/19 07:07:24;;;;;;;7.97;7.18;;;;;;;;;;4949549;28;20062;-73
2021/06/19 07:09:51;;;;;;;8.35;7.55;;;;;;;;;;4948156;28;20058;-73
2021/06/19 07:12:17;;;;;;;7.90;7.15;;;;;;;;;;4944840;28;20463;-72
2021/06/19 07:14:44;;;;;;;9.25;7.57;;;;;;;;;;4938694;28;20492;-72
2021/06/19 07:17:11;;;;;;;8.30;7.47;;;;;;;;;;4932572;28;20499;-73
2021/06/19 07:19:40;;;;;;;10.15;7.43;;;;;;;;;;4928223;28;20067;-73
2021/06/19 07:22:07;;;;;;;8.07;7.28;;;;;;;;;;4937031;28;20067;-73
2021/06/19 07:24:34;;;;;;;7.97;7.28;;;;;;;;;;4943748;28;20082;-74
2021/06/19 07:27:01;;;;;;;10.48;8.25;;;;;;;;;;4956824;28;20059;-73
2021/06/19 07:29:27;;;;;;;9.13;8.30;;;;;;;;;;4944837;28;20066;-72
2021/06/19 07:32:03;;;;;;;9.77;8.93;;;;;;;;;;4943767;28;20499;-72
2021/06/19 07:34:30;;;;;;;9.57;8.75;;;;;;;;;;4947124;28;20063;-73
2021/06/19 07:36:56;;;;;;;9.50;8.50;;;;;;;;;;4943921;28;20473;-73
2021/06/19 07:39:23;;;;;;;10.43;9.23;;;;;;;;;;4948124;28;20098;-72
2021/06/19 07:41:50;;;;;;;9.30;8.48;;;;;;;;;;4947166;28;20086;-73
2021/06/19 07:44:16;;;;;;;8.45;7.65;;;;;;;;;;4947878;28;20101;-72
2021/06/19 07:46:46;;;;;;;7.50;6.80;;;;;;;;;;4944562;28;20090;-72
2021/06/19 07:49:12;;;;;;;8.65;7.80;;;;;;;;;;4945597;28;20071;-73
2021/06/19 07:51:39;;;;;;;9.40;8.50;;;;;;;;;;4946905;28;20074;-73
2021/06/19 07:54:05;;;;;;;7.75;7.05;;;;;;;;;;4946346;28;20114;-72
2021/06/19 07:56:32;;;;;;;8.68;7.88;;;;;;;;;;4945681;28;20461;-73
2021/06/19 07:58:58;;;;;;;8.35;7.65;;;;;;;;;;4946570;28;20078;-72
2021/06/19 08:01:24;;;;;;;8.65;7.85;;;;;;;;;;4949908;28;20094;-72
2021/06/19 08:03:51;;;;;;;8.48;7.75;;;;;;;;;;4945183;28;20059;-73
2021/06/19 08:06:17;;;;;;;8.88;7.97;;;;;;;;;;4948554;28;20504;-73
2021/06/19 08:08:44;;;;;;;8.43;7.50;;;;;;;;;;4945429;28;20082;-72
2021/06/19 08:11:10;;;;;;;8.90;8.00;;;;;;;;;;4946490;28;20059;-73
2021/06/19 08:13:36;;;;;;;9.68;8.55;;;;;;;;;;4946991;28;20519;-73
2021/06/19 08:16:05;;;;;;;9.27;8.38;;;;;;;;;;4947170;28;20078;-73
2021/06/19 08:18:31;;;;;;;8.70;7.50;;;;;;;;;;4943213;28;20067;-73
2021/06/19 08:20:58;;;;;;;8.38;7.57;;;;;;;;;;4945594;28;20122;-72
2021/06/19 08:23:25;;;;;;;8.45;7.65;;;;;;;;;;4946518;28;20035;-73
2021/06/19 08:25:51;;;;;;;7.68;6.97;;;;;;;;;;4945307;28;20090;-73
2021/06/19 08:28:17;;;;;;;8.70;7.90;;;;;;;;;;4948155;28;20158;-73
2021/06/19 08:30:44;;;;;;;8.43;7.60;;;;;;;;;;4946574;28;20075;-72
2021/06/19 08:33:10;;;;;;;8.35;7.60;;;;;;;;;;4947469;28;20451;-73
2021/06/19 08:35:37;;;;;;;7.70;7.00;;;;;;;;;;4945192;28;20063;-73
2021/06/19 08:38:03;;;;;;;8.30;7.55;;;;;;;;;;4946095;28;20067;-71
2021/06/19 08:40:31;;;;;;;11.13;7.45;;;;;;;;;;4946083;28;20086;-73
2021/06/19 08:42:57;;;;;;;8.20;7.50;;;;;;;;;;4948986;28;20514;-73
2021/06/19 08:45:24;;;;;;;8.23;7.43;;;;;;;;;;4946027;28;20051;-71
2021/06/19 08:47:51;;;;;;;9.63;7.18;;;;;;;;;;4949306;28;20058;-72
2021/06/19 08:50:17;;;;;;;8.02;7.30;;;;;;;;;;4948921;28;20062;-72
2021/06/19 08:52:45;;;;;;;7.78;6.95;;;;;;;;;;4951173;28;20071;-72
2021/06/19 08:55:14;;;;;;;7.30;6.68;;;;;;;;;;4948436;28;20158;-72
2021/06/19 08:57:40;;;;;;;7.97;7.28;;;;;;;;;;4947439;28;20127;-72
2021/06/19 09:00:08;;;;;;;9.55;8.00;;;;;;;;;;4949413;28;20110;-72
2021/06/19 09:02:34;;;;;;;13.52;7.40;;;;;;;;;;4948598;28;20122;-72
2021/06/19 09:05:12;;;;;;;8.55;7.85;;;;;;;;;;4949850;28;20061;-71
2021/06/19 09:07:39;;;;;;;7.95;7.22;;;;;;;;;;4946889;28;20063;-73
2021/06/19 09:10:23;;;;;;;9.27;8.43;;;;;;;;;;4935015;28;20063;-72
2021/06/19 09:12:59;;;;;;;8.23;7.43;;;;;;;;;;4951436;28;20573;-73
2021/06/19 09:15:27;;;;;;;8.30;7.50;;;;;;;;;;4942441;28;20074;-73
2021/06/19 09:18:04;;;;;;;8.43;7.63;;;;;;;;;;4929184;28;20172;-72
2021/06/19 09:20:40;;;;;;;10.07;9.07;;;;;;;;;;4951460;28;20499;-74
2021/06/19 09:23:10;;;;;;;8.93;7.53;;;;;;;;;;4946560;28;20113;-72
2021/06/19 09:25:37;;;;;;;10.00;8.20;;;;;;;;;;4949445;28;20586;-72
2021/06/19 09:28:05;;;;;;;8.85;8.05;;;;;;;;;;4950488;28;20488;-71
2021/06/19 09:30:31;;;;;;;8.80;8.00;;;;;;;;;;4950120;28;20066;-72
2021/06/19 09:33:06;;;;;;;9.15;8.25;;;;;;;;;;4960458;28;20050;-73
2021/06/19 09:35:34;;;;;;;8.82;8.02;;;;;;;;;;4950884;28;20117;-72
2021/06/19 09:38:11;;;;;;;9.10;8.27;;;;;;;;;;4952056;28;20071;-72
2021/06/19 09:40:44;;;;;;;8.43;7.63;;;;;;;;;;4946606;28;20071;-72
2021/06/19 09:43:17;;;;;;;10.23;9.23;;;;;;;;;;4951752;28;20492;-72
2021/06/19 09:46:03;;;;;;;8.65;7.85;;;;;;;;;;4948763;28;20074;-72
2021/06/19 09:48:34;;;;;;;9.30;8.38;;;;;;;;;;4952429;28;20035;-72
2021/06/19 09:51:10;;;;;;;9.68;8.65;;;;;;;;;;4943913;28;22345;-72
2021/06/19 09:53:37;;;;;;;10.48;9.43;;;;;;;;;;4937899;28;20070;-72
2021/06/19 09:56:10;;;;;;;10.73;9.32;;;;;;;;;;4928378;28;20060;-73
2021/06/19 09:58:57;;;;;;;9.38;8.40;;;;;;;;;;4923846;28;20071;-73
2021/06/19 10:01:35;;;;;;;10.60;8.18;;;;;;;;;;4930011;28;20093;-72
2021/06/19 10:04:03;;;;;;;9.50;8.50;;;;;;;;;;4948272;28;21225;-74
2021/06/19 10:06:30;;;;;;;8.75;7.90;;;;;;;;;;4950846;28;20110;-73
2021/06/19 10:08:57;;;;;;;9.75;7.97;;;;;;;;;;4945610;28;20531;-74
2021/06/19 10:11:28;;;;;;;8.80;7.75;;;;;;;;;;4948680;28;20142;-73
2021/06/19 10:13:57;;;;;;;8.73;7.93;;;;;;;;;;4945519;28;20031;-74
2021/06/19 10:16:24;;;;;;;9.15;8.30;;;;;;;;;;4951409;28;20081;-73
2021/06/19 10:18:51;;;;;;;8.98;8.18;;;;;;;;;;4948038;28;20071;-73
2021/06/19 10:21:18;;;;;;;9.50;8.70;;;;;;;;;;4944262;28;20513;-74
2021/06/19 10:23:44;;;;;;;9.48;8.52;;;;;;;;;;4948617;28;20067;-74
2021/06/19 10:26:11;;;;;;;8.85;7.95;;;;;;;;;;4947977;28;20263;-74
2021/06/19 10:28:42;;;;;;;8.50;7.68;;;;;;;;;;4944094;28;20488;-74
2021/06/19 10:31:10;;;;;;;9.30;8.50;;;;;;;;;;4947125;28;20058;-74
2021/06/19 10:33:36;;;;;;;8.73;7.85;;;;;;;;;;4943961;28;20070;-74
2021/06/19 10:36:04;;;;;;;8.60;7.80;;;;;;;;;;4948500;28;20070;-77
2021/06/19 10:38:31;;;;;;;8.98;8.18;;;;;;;;;;4945074;28;20096;-75
2021/06/19 10:40:59;;;;;;;8.98;7.60;;;;;;;;;;4943074;28;20531;-81
2021/06/19 10:43:27;;;;;;;8.02;7.22;;;;;;;;;;4948394;28;20116;-80
2021/06/19 10:45:59;;;;;;;8.10;7.40;;;;;;;;;;4946110;28;20110;-80
2021/06/19 10:48:36;;;;;;;8.10;7.40;;;;;;;;;;4946371;28;20079;-81
2021/06/19 10:51:22;;;;;;;8.35;7.53;;;;;;;;;;4947208;28;20248;-81
2021/06/19 10:54:17;;;;;;;8.43;7.63;;;;;;;;;;4954883;28;20129;-80
2021/06/19 10:56:44;;;;;;;8.38;7.57;;;;;;;;;;4936030;28;20070;-79
2021/06/19 10:59:26;;;;;;;8.70;7.90;;;;;;;;;;4946116;28;20059;-81
2021/06/19 11:01:54;;;;;;;8.15;7.35;;;;;;;;;;4947435;28;20127;-80
2021/06/19 11:04:50;;;;;;;9.35;8.45;;;;;;;;;;4948351;28;20047;-80
2021/06/19 11:07:19;;;;;;;8.27;7.57;;;;;;;;;;4944746;28;22002;-80
2021/06/19 11:09:48;;;;;;;7.65;6.90;;;;;;;;;;4949660;28;20067;-80
2021/06/19 11:12:30;;;;;;;8.00;7.30;;;;;;;;;;4946016;28;20062;-80
2021/06/19 11:14:58;;;;;;;8.70;7.90;;;;;;;;;;4952224;28;20352;-80
2021/06/19 11:17:25;;;;;;;8.93;8.07;;;;;;;;;;4954104;28;20066;-80
2021/06/19 11:19:55;;;;;;;9.38;8.48;;;;;;;;;;4946029;28;20078;-80
2021/06/19 11:22:25;;;;;;;9.15;7.88;;;;;;;;;;4948748;28;20063;-80
2021/06/19 11:25:11;;;;;;;9.60;8.70;;;;;;;;;;4948487;28;20138;-81
2021/06/19 11:27:53;;;;;;;8.95;8.10;;;;;;;;;;4954020;28;20071;-75
2021/06/19 11:30:34;;;;;;;9.48;8.65;;;;;;;;;;4946912;28;20062;-75
2021/06/19 11:33:19;;;;;;;9.15;8.25;;;;;;;;;;4946328;28;20074;-76
2021/06/19 11:35:47;;;;;;;9.57;8.63;;;;;;;;;;4947171;28;20111;-75
2021/06/19 11:38:14;;;;;;;9.00;8.20;;;;;;;;;;4947605;28;20500;-76
2021/06/19 11:40:42;;;;;;;7.72;6.95;;;;;;;;;;4945382;28;20484;-75
2021/06/19 11:43:09;;;;;;;7.55;6.85;;;;;;;;;;4948807;28;20058;-76
2021/06/19 11:45:37;;;;;;;9.23;8.32;;;;;;;;;;4947031;28;20066;-75
2021/06/19 11:48:05;;;;;;;9.13;8.10;;;;;;;;;;4946391;28;20099;-75
2021/06/19 11:50:32;;;;;;;9.02;8.13;;;;;;;;;;4949587;28;20074;-75
2021/06/19 11:53:18;;;;;;;9.50;8.32;;;;;;;;;;4950567;28;20066;-75
2021/06/19 11:55:44;;;;;;;8.98;8.18;;;;;;;;;;4939330;28;20059;-75
2021/06/19 11:58:11;;;;;;;8.25;7.55;;;;;;;;;;4948269;28;20039;-75
2021/06/19 12:00:53;;;;;;;9.50;8.60;;;;;;;;;;4944039;28;20074;-75
2021/06/19 12:03:22;;;;;;;10.20;9.30;;;;;;;;;;4946931;28;20059;-74
2021/06/19 12:05:49;;;;;;;9.68;8.77;;;;;;;;;;4944820;28;20070;-74
2021/06/19 12:08:16;;;;;;;9.10;8.20;;;;;;;;;;4946678;28;20067;-75
2021/06/19 12:10:42;;;;;;;9.10;8.13;;;;;;;;;;4946081;28;20062;-75
2021/06/19 12:13:08;;;;;;;9.20;8.30;;;;;;;;;;4946071;28;20472;-75
2021/06/19 12:15:35;;;;;;;9.13;8.30;;;;;;;;;;4945193;28;20063;-74
2021/06/19 12:18:04;;;;;;;9.00;8.10;;;;;;;;;;4950510;28;20059;-75
2021/06/19 12:20:30;;;;;;;9.63;8.73;;;;;;;;;;4945702;28;20066;-74
2021/06/19 12:22:57;;;;;;;9.65;8.75;;;;;;;;;;4939437;28;20129;-74
2021/06/19 12:25:30;;;;;;;9.60;8.57;;;;;;;;;;4954987;28;20233;-75
2021/06/19 12:27:57;;;;;;;9.43;8.52;;;;;;;;;;4931595;28;20050;-75
2021/06/19 12:30:23;;;;;;;9.80;8.82;;;;;;;;;;4949979;28;20079;-75
2021/06/19 12:32:50;;;;;;;10.30;9.05;;;;;;;;;;4947796;28;20098;-75
2021/06/19 12:35:17;;;;;;;9.77;8.80;;;;;;;;;;4949341;28;20062;-76
2021/06/19 12:37:51;;;;;;;10.20;9.20;;;;;;;;;;4948107;28;20059;-75
2021/06/19 12:40:18;;;;;;;9.82;8.85;;;;;;;;;;4946248;28;20125;-74
2021/06/19 12:42:50;;;;;;;9.05;8.15;;;;;;;;;;4945003;28;20074;-75
2021/06/19 12:45:20;;;;;;;9.75;8.65;;;;;;;;;;4934089;28;20088;-75
2021/06/19 12:47:49;;;;;;;9.40;8.50;;;;;;;;;;4946209;28;20129;-75
2021/06/19 12:50:19;;;;;;;8.35;7.45;;;;;;;;;;4948546;28;20074;-75
2021/06/19 12:52:59;;;;;;;9.05;8.15;;;;;;;;;;4946452;28;20071;-75
2021/06/19 12:55:26;;;;;;;9.55;8.75;;;;;;;;;;4939680;28;20122;-76
2021/06/19 12:58:09;;;;;;;9.05;8.18;;;;;;;;;;4946631;28;20055;-76
2021/06/19 13:00:40;;;;;;;9.77;8.55;;;;;;;;;;4945105;28;20078;-78
2021/06/19 13:03:06;;;;;;;8.43;7.70;;;;;;;;;;4948123;28;20063;-75
2021/06/19 13:05:33;;;;;;;9.20;8.18;;;;;;;;;;4937559;28;20063;-75
2021/06/19 13:08:09;;;;;;;9.30;8.38;;;;;;;;;;4935338;28;20066;-76
2021/06/19 13:10:36;;;;;;;9.20;8.40;;;;;;;;;;4945761;28;20122;-76
2021/06/19 13:13:02;;;;;;;8.98;8.07;;;;;;;;;;4950755;28;20066;-76
2021/06/19 13:15:29;;;;;;;8.23;7.45;;;;;;;;;;4958029;28;20141;-75
2021/06/19 13:17:56;;;;;;;8.80;8.00;;;;;;;;;;4949506;28;20767;-75
2021/06/19 13:20:38;;;;;;;8.18;7.47;;;;;;;;;;4947464;28;20067;-75
2021/06/19 13:23:05;;;;;;;7.95;7.30;;;;;;;;;;4944263;28;22400;-76
2021/06/19 13:25:50;;;;;;;8.52;7.75;;;;;;;;;;4947351;28;20205;-76
2021/06/19 13:28:17;;;;;;;8.50;7.60;;;;;;;;;;4947227;28;20059;-76
2021/06/19 13:30:43;;;;;;;7.90;7.20;;;;;;;;;;4953873;28;20113;-76
2021/06/19 13:33:10;;;;;;;9.02;8.25;;;;;;;;;;4949059;28;20058;-76
2021/06/19 13:35:49;;;;;;;8.40;7.60;;;;;;;;;;4955921;28;20062;-76
2021/06/19 13:38:16;;;;;;;8.52;7.68;;;;;;;;;;4954312;28;20467;-75
2021/06/19 13:40:42;;;;;;;8.13;7.43;;;;;;;;;;4948614;28;20067;-75
2021/06/19 13:43:09;;;;;;;7.88;7.18;;;;;;;;;;4953704;28;20059;-75
2021/06/19 13:45:35;;;;;;;8.45;7.65;;;;;;;;;;4939120;28;20063;-75
2021/06/19 13:48:02;;;;;;;8.18;7.43;;;;;;;;;;4929770;28;20654;-74
2021/06/19 13:50:28;;;;;;;8.13;7.43;;;;;;;;;;4929208;28;20055;-75
2021/06/19 13:52:55;;;;;;;8.48;7.68;;;;;;;;;;4958138;28;20575;-75
2021/06/19 13:55:26;;;;;;;8.70;7.90;;;;;;;;;;4939778;28;20074;-74
2021/06/19 13:57:52;;;;;;;8.48;7.68;;;;;;;;;;4926016;28;20633;-74
2021/06/19 14:00:19;;;;;;;7.40;6.70;;;;;;;;;;4948065;28;20067;-75
2021/06/19 14:02:45;;;;;;;8.27;7.47;;;;;;;;;;4946123;28;20133;-76
2021/06/19 14:05:12;;;;;;;8.15;7.43;;;;;;;;;;4947164;28;20106;-75
2021/06/19 14:07:38;;;;;;;9.25;8.30;;;;;;;;;;4940487;28;20571;-75
2021/06/19 14:10:05;;;;;;;8.43;7.60;;;;;;;;;;4949826;28;20067;-75
2021/06/19 14:12:32;;;;;;;8.57;7.70;;;;;;;;;;4948422;28;20035;-74
2021/06/19 14:14:58;;;;;;;10.93;7.70;;;;;;;;;;4946660;28;20059;-75
2021/06/19 14:17:24;;;;;;;8.85;8.13;;;;;;;;;;4945306;28;20067;-75
2021/06/19 14:19:51;;;;;;;8.57;7.68;;;;;;;;;;4945023;28;20114;-74
2021/06/19 14:22:17;;;;;;;9.50;7.97;;;;;;;;;;4945632;28;20074;-75
2021/06/19 14:24:43;;;;;;;8.45;7.53;;;;;;;;;;4946961;28;20079;-75
2021/06/19 14:27:20;;;;;;;9.13;7.88;;;;;;;;;;4946390;28;20073;-75
2021/06/19 14:29:47;;;;;;;9.63;8.73;;;;;;;;;;4945772;28;20466;-73
2021/06/19 14:32:13;;;;;;;8.45;7.55;;;;;;;;;;4945598;28;20126;-73
2021/06/19 14:34:39;;;;;;;8.02;7.32;;;;;;;;;;4947918;28;20074;-74
2021/06/19 14:37:06;;;;;;;8.18;7.47;;;;;;;;;;4947132;28;20078;-73
2021/06/19 14:39:32;;;;;;;8.40;7.60;;;;;;;;;;4944437;28;20079;-74
2021/06/19 14:41:58;;;;;;;7.97;7.28;;;;;;;;;;4945902;28;20073;-72
2021/06/19 14:44:25;;;;;;;7.85;7.13;;;;;;;;;;4945414;28;20089;-74
2021/06/19 14:46:52;;;;;;;8.07;7.07;;;;;;;;;;4944389;28;20590;-75
2021/06/19 14:49:18;;;;;;;9.15;7.50;;;;;;;;;;4947851;28;20508;-75